sensor_id;sensor_type;location;lat;lon;timestamp;P1;durP1;ratioP1;P2;durP2;ratioP2
47335;SDS011;33068;51.990;5.926;2022-10-31T00:02:08;31.52;;;14.80;;
47335;SDS011;33068;51.990;5.926;2022-10-31T00:04:35;23.33;;;13.63;;
47335;SDS011;33068;51.990;5.926;2022-10-31T00:07:02;23.23;;;13.35;;
47335;SDS011;33068;51.990;5.926;2022-10-31T00:09:29;25.05;;;14.73;;
47335;SDS011;33068;51.990;5.926;2022-10-31T00:11:57;29.92;;;15.13;;
47335;SDS011;33068;51.990;5.926;2022-10-31T00:14:24;30.13;;;14.85;;
47335;SDS011;33068;51.990;5.926;2022-10-31T00:16:51;25.05;;;13.15;;
47335;SDS011;33068;51.990;5.926;2022-10-31T00:19:18;29.20;;;14.70;;
47335;SDS011;33068;51.990;5.926;2022-10-31T00:21:45;30.90;;;14.73;;
47335;SDS011;33068;51.990;5.926;2022-10-31T00:24:12;27.38;;;15.05;;
47335;SDS011;33068;51.990;5.926;2022-10-31T00:26:39;29.80;;;15.45;;
47335;SDS011;33068;51.990;5.926;2022-10-31T00:29:08;32.08;;;16.50;;
47335;SDS011;33068;51.990;5.926;2022-10-31T00:31:35;26.33;;;15.55;;
47335;SDS011;33068;51.990;5.926;2022-10-31T00:34:02;23.08;;;15.38;;
47335;SDS011;33068;51.990;5.926;2022-10-31T00:36:29;25.35;;;15.70;;
47335;SDS011;33068;51.990;5.926;2022-10-31T00:38:57;32.50;;;16.30;;
47335;SDS011;33068;51.990;5.926;2022-10-31T00:41:25;25.75;;;14.85;;
47335;SDS011;33068;51.990;5.926;2022-10-31T00:43:52;30.10;;;16.05;;
47335;SDS011;33068;51.990;5.926;2022-10-31T00:46:20;26.38;;;15.55;;
47335;SDS011;33068;51.990;5.926;2022-10-31T00:48:49;25.35;;;14.48;;
47335;SDS011;33068;51.990;5.926;2022-10-31T00:51:16;24.25;;;14.60;;
47335;SDS011;33068;51.990;5.926;2022-10-31T00:53:43;31.02;;;15.60;;
47335;SDS011;33068;51.990;5.926;2022-10-31T00:56:11;24.00;;;15.25;;
47335;SDS011;33068;51.990;5.926;2022-10-31T00:58:38;28.27;;;16.45;;
47335;SDS011;33068;51.990;5.926;2022-10-31T01:01:06;33.65;;;17.00;;
47335;SDS011;33068;51.990;5.926;2022-10-31T01:03:35;29.75;;;16.17;;
47335;SDS011;33068;51.990;5.926;2022-10-31T01:06:05;28.17;;;15.57;;
47335;SDS011;33068;51.990;5.926;2022-10-31T01:08:33;27.65;;;16.45;;
47335;SDS011;33068;51.990;5.926;2022-10-31T01:11:03;31.67;;;16.15;;
47335;SDS011;33068;51.990;5.926;2022-10-31T01:13:32;25.85;;;15.70;;
47335;SDS011;33068;51.990;5.926;2022-10-31T01:16:00;30.42;;;15.60;;
47335;SDS011;33068;51.990;5.926;2022-10-31T01:18:28;28.60;;;15.23;;
47335;SDS011;33068;51.990;5.926;2022-10-31T01:21:01;28.55;;;15.45;;
47335;SDS011;33068;51.990;5.926;2022-10-31T01:23:30;27.77;;;15.60;;
47335;SDS011;33068;51.990;5.926;2022-10-31T01:26:05;28.33;;;15.43;;
47335;SDS011;33068;51.990;5.926;2022-10-31T01:31:02;27.17;;;15.65;;
47335;SDS011;33068;51.990;5.926;2022-10-31T01:33:32;28.95;;;16.05;;
47335;SDS011;33068;51.990;5.926;2022-10-31T01:36:01;31.42;;;15.82;;
47335;SDS011;33068;51.990;5.926;2022-10-31T01:38:38;27.83;;;14.52;;
47335;SDS011;33068;51.990;5.926;2022-10-31T01:41:05;27.08;;;14.73;;
47335;SDS011;33068;51.990;5.926;2022-10-31T01:43:42;25.55;;;14.90;;
47335;SDS011;33068;51.990;5.926;2022-10-31T01:46:13;29.20;;;14.80;;
47335;SDS011;33068;51.990;5.926;2022-10-31T01:48:42;22.52;;;14.80;;
47335;SDS011;33068;51.990;5.926;2022-10-31T01:51:11;26.08;;;14.98;;
47335;SDS011;33068;51.990;5.926;2022-10-31T01:53:41;30.75;;;16.67;;
47335;SDS011;33068;51.990;5.926;2022-10-31T01:56:11;29.63;;;16.48;;
47335;SDS011;33068;51.990;5.926;2022-10-31T01:58:39;29.80;;;15.00;;
47335;SDS011;33068;51.990;5.926;2022-10-31T02:01:06;24.73;;;14.68;;
47335;SDS011;33068;51.990;5.926;2022-10-31T02:03:34;26.08;;;14.98;;
47335;SDS011;33068;51.990;5.926;2022-10-31T02:06:02;33.40;;;16.05;;
47335;SDS011;33068;51.990;5.926;2022-10-31T02:08:34;24.30;;;15.25;;
47335;SDS011;33068;51.990;5.926;2022-10-31T02:11:03;29.08;;;17.17;;
47335;SDS011;33068;51.990;5.926;2022-10-31T02:13:31;32.22;;;15.27;;
47335;SDS011;33068;51.990;5.926;2022-10-31T02:16:04;38.30;;;16.08;;
47335;SDS011;33068;51.990;5.926;2022-10-31T02:18:32;33.03;;;16.05;;
47335;SDS011;33068;51.990;5.926;2022-10-31T02:21:02;28.20;;;14.45;;
47335;SDS011;33068;51.990;5.926;2022-10-31T02:26:43;25.38;;;14.70;;
47335;SDS011;33068;51.990;5.926;2022-10-31T02:29:33;28.90;;;14.07;;
47335;SDS011;33068;51.990;5.926;2022-10-31T02:34:48;25.15;;;14.40;;
47335;SDS011;33068;51.990;5.926;2022-10-31T02:37:25;29.38;;;15.48;;
47335;SDS011;33068;51.990;5.926;2022-10-31T02:40:00;29.15;;;15.77;;
47335;SDS011;33068;51.990;5.926;2022-10-31T02:43:02;33.30;;;16.40;;
47335;SDS011;33068;51.990;5.926;2022-10-31T02:45:34;33.00;;;15.70;;
47335;SDS011;33068;51.990;5.926;2022-10-31T02:48:08;27.38;;;15.73;;
47335;SDS011;33068;51.990;5.926;2022-10-31T02:50:41;26.17;;;15.00;;
47335;SDS011;33068;51.990;5.926;2022-10-31T02:53:13;31.73;;;16.50;;
47335;SDS011;33068;51.990;5.926;2022-10-31T02:55:49;29.40;;;15.77;;
47335;SDS011;33068;51.990;5.926;2022-10-31T02:58:21;31.80;;;16.27;;
47335;SDS011;33068;51.990;5.926;2022-10-31T03:00:56;26.98;;;15.70;;
47335;SDS011;33068;51.990;5.926;2022-10-31T03:03:36;30.35;;;15.35;;
47335;SDS011;33068;51.990;5.926;2022-10-31T03:06:12;29.48;;;15.48;;
47335;SDS011;33068;51.990;5.926;2022-10-31T03:08:47;28.00;;;15.52;;
47335;SDS011;33068;51.990;5.926;2022-10-31T03:11:21;24.63;;;14.38;;
47335;SDS011;33068;51.990;5.926;2022-10-31T03:13:56;26.77;;;16.20;;
47335;SDS011;33068;51.990;5.926;2022-10-31T03:16:28;29.42;;;16.30;;
47335;SDS011;33068;51.990;5.926;2022-10-31T03:19:05;33.50;;;16.83;;
47335;SDS011;33068;51.990;5.926;2022-10-31T03:21:35;29.80;;;17.55;;
47335;SDS011;33068;51.990;5.926;2022-10-31T03:24:06;30.83;;;16.77;;
47335;SDS011;33068;51.990;5.926;2022-10-31T03:26:36;35.70;;;16.25;;
47335;SDS011;33068;51.990;5.926;2022-10-31T03:29:06;36.05;;;17.15;;
47335;SDS011;33068;51.990;5.926;2022-10-31T03:31:39;29.83;;;17.27;;
47335;SDS011;33068;51.990;5.926;2022-10-31T03:34:13;32.17;;;16.48;;
47335;SDS011;33068;51.990;5.926;2022-10-31T03:36:43;25.58;;;15.70;;
47335;SDS011;33068;51.990;5.926;2022-10-31T03:39:13;29.90;;;15.88;;
47335;SDS011;33068;51.990;5.926;2022-10-31T03:41:43;25.80;;;15.27;;
47335;SDS011;33068;51.990;5.926;2022-10-31T03:44:14;26.40;;;15.65;;
47335;SDS011;33068;51.990;5.926;2022-10-31T03:46:48;27.02;;;15.57;;
47335;SDS011;33068;51.990;5.926;2022-10-31T03:49:16;30.40;;;15.38;;
47335;SDS011;33068;51.990;5.926;2022-10-31T03:51:44;26.50;;;16.45;;
47335;SDS011;33068;51.990;5.926;2022-10-31T03:54:17;27.67;;;15.65;;
47335;SDS011;33068;51.990;5.926;2022-10-31T03:56:50;29.10;;;15.60;;
47335;SDS011;33068;51.990;5.926;2022-10-31T03:59:23;32.20;;;16.10;;
47335;SDS011;33068;51.990;5.926;2022-10-31T04:01:53;34.03;;;15.77;;
47335;SDS011;33068;51.990;5.926;2022-10-31T04:04:25;30.00;;;15.02;;
47335;SDS011;33068;51.990;5.926;2022-10-31T04:06:53;29.05;;;15.63;;
47335;SDS011;33068;51.990;5.926;2022-10-31T04:09:22;28.92;;;16.23;;
47335;SDS011;33068;51.990;5.926;2022-10-31T04:11:53;30.73;;;16.42;;
47335;SDS011;33068;51.990;5.926;2022-10-31T04:14:36;26.58;;;15.75;;
47335;SDS011;33068;51.990;5.926;2022-10-31T04:17:07;25.48;;;16.77;;
47335;SDS011;33068;51.990;5.926;2022-10-31T04:19:41;33.55;;;17.63;;
47335;SDS011;33068;51.990;5.926;2022-10-31T04:22:09;33.63;;;17.42;;
47335;SDS011;33068;51.990;5.926;2022-10-31T04:24:37;30.52;;;17.58;;
47335;SDS011;33068;51.990;5.926;2022-10-31T04:27:07;27.42;;;16.52;;
47335;SDS011;33068;51.990;5.926;2022-10-31T04:29:34;29.70;;;17.25;;
47335;SDS011;33068;51.990;5.926;2022-10-31T04:32:01;30.30;;;17.50;;
47335;SDS011;33068;51.990;5.926;2022-10-31T04:34:28;30.35;;;17.38;;
47335;SDS011;33068;51.990;5.926;2022-10-31T04:36:57;36.20;;;18.35;;
47335;SDS011;33068;51.990;5.926;2022-10-31T04:39:24;35.17;;;17.95;;
47335;SDS011;33068;51.990;5.926;2022-10-31T04:42:14;31.33;;;18.02;;
47335;SDS011;33068;51.990;5.926;2022-10-31T04:44:41;33.95;;;18.08;;
47335;SDS011;33068;51.990;5.926;2022-10-31T04:47:08;36.55;;;18.75;;
47335;SDS011;33068;51.990;5.926;2022-10-31T04:49:35;37.22;;;19.25;;
47335;SDS011;33068;51.990;5.926;2022-10-31T04:52:04;37.03;;;19.85;;
47335;SDS011;33068;51.990;5.926;2022-10-31T04:54:32;35.75;;;20.10;;
47335;SDS011;33068;51.990;5.926;2022-10-31T04:57:17;35.47;;;17.92;;
47335;SDS011;33068;51.990;5.926;2022-10-31T04:59:45;40.58;;;19.13;;
47335;SDS011;33068;51.990;5.926;2022-10-31T05:02:12;33.13;;;18.45;;
47335;SDS011;33068;51.990;5.926;2022-10-31T05:04:47;35.42;;;18.45;;
47335;SDS011;33068;51.990;5.926;2022-10-31T05:07:16;34.70;;;18.63;;
47335;SDS011;33068;51.990;5.926;2022-10-31T05:09:42;37.22;;;19.63;;
47335;SDS011;33068;51.990;5.926;2022-10-31T05:12:11;37.38;;;20.40;;
47335;SDS011;33068;51.990;5.926;2022-10-31T05:15:08;36.38;;;20.00;;
47335;SDS011;33068;51.990;5.926;2022-10-31T05:18:08;36.65;;;19.45;;
47335;SDS011;33068;51.990;5.926;2022-10-31T05:20:58;43.60;;;21.85;;
47335;SDS011;33068;51.990;5.926;2022-10-31T05:23:34;42.28;;;21.65;;
47335;SDS011;33068;51.990;5.926;2022-10-31T05:26:06;41.90;;;23.33;;
47335;SDS011;33068;51.990;5.926;2022-10-31T05:28:33;44.63;;;22.95;;
47335;SDS011;33068;51.990;5.926;2022-10-31T05:31:02;46.67;;;24.13;;
47335;SDS011;33068;51.990;5.926;2022-10-31T05:33:30;50.50;;;23.80;;
47335;SDS011;33068;51.990;5.926;2022-10-31T05:36:16;47.42;;;24.48;;
47335;SDS011;33068;51.990;5.926;2022-10-31T05:38:57;44.72;;;22.40;;
47335;SDS011;33068;51.990;5.926;2022-10-31T05:41:30;38.08;;;22.58;;
47335;SDS011;33068;51.990;5.926;2022-10-31T05:44:07;51.70;;;24.27;;
47335;SDS011;33068;51.990;5.926;2022-10-31T05:46:48;48.70;;;24.42;;
47335;SDS011;33068;51.990;5.926;2022-10-31T05:49:34;38.55;;;23.17;;
47335;SDS011;33068;51.990;5.926;2022-10-31T05:52:33;43.58;;;23.27;;
47335;SDS011;33068;51.990;5.926;2022-10-31T05:55:09;46.47;;;24.45;;
47335;SDS011;33068;51.990;5.926;2022-10-31T05:57:40;47.60;;;24.42;;
47335;SDS011;33068;51.990;5.926;2022-10-31T06:00:08;43.83;;;23.23;;
47335;SDS011;33068;51.990;5.926;2022-10-31T06:02:46;46.63;;;23.40;;
47335;SDS011;33068;51.990;5.926;2022-10-31T06:05:24;48.65;;;24.80;;
47335;SDS011;33068;51.990;5.926;2022-10-31T06:07:51;51.03;;;24.63;;
47335;SDS011;33068;51.990;5.926;2022-10-31T06:10:20;52.08;;;24.35;;
47335;SDS011;33068;51.990;5.926;2022-10-31T06:12:51;51.88;;;25.08;;
47335;SDS011;33068;51.990;5.926;2022-10-31T06:15:35;43.42;;;23.77;;
47335;SDS011;33068;51.990;5.926;2022-10-31T06:18:05;47.13;;;24.02;;
47335;SDS011;33068;51.990;5.926;2022-10-31T06:20:36;54.95;;;26.10;;
47335;SDS011;33068;51.990;5.926;2022-10-31T06:23:04;48.10;;;25.70;;
47335;SDS011;33068;51.990;5.926;2022-10-31T06:25:34;55.42;;;26.77;;
47335;SDS011;33068;51.990;5.926;2022-10-31T06:28:03;47.33;;;24.25;;
47335;SDS011;33068;51.990;5.926;2022-10-31T06:30:47;46.78;;;25.13;;
47335;SDS011;33068;51.990;5.926;2022-10-31T06:33:15;44.70;;;25.08;;
47335;SDS011;33068;51.990;5.926;2022-10-31T06:35:52;52.10;;;27.80;;
47335;SDS011;33068;51.990;5.926;2022-10-31T06:38:20;55.42;;;26.98;;
47335;SDS011;33068;51.990;5.926;2022-10-31T06:40:48;60.17;;;27.27;;
47335;SDS011;33068;51.990;5.926;2022-10-31T06:43:20;55.53;;;27.90;;
47335;SDS011;33068;51.990;5.926;2022-10-31T06:45:50;51.67;;;27.58;;
47335;SDS011;33068;51.990;5.926;2022-10-31T06:48:23;52.35;;;27.73;;
47335;SDS011;33068;51.990;5.926;2022-10-31T06:51:26;60.05;;;27.75;;
47335;SDS011;33068;51.990;5.926;2022-10-31T06:53:53;51.38;;;29.05;;
47335;SDS011;33068;51.990;5.926;2022-10-31T06:56:23;52.13;;;27.77;;
47335;SDS011;33068;51.990;5.926;2022-10-31T06:58:54;55.55;;;27.02;;
47335;SDS011;33068;51.990;5.926;2022-10-31T07:01:41;47.10;;;26.08;;
47335;SDS011;33068;51.990;5.926;2022-10-31T07:04:09;52.28;;;26.58;;
47335;SDS011;33068;51.990;5.926;2022-10-31T07:06:37;51.38;;;27.02;;
47335;SDS011;33068;51.990;5.926;2022-10-31T07:09:04;48.42;;;28.15;;
47335;SDS011;33068;51.990;5.926;2022-10-31T07:11:33;49.83;;;27.98;;
47335;SDS011;33068;51.990;5.926;2022-10-31T07:14:00;45.75;;;25.80;;
47335;SDS011;33068;51.990;5.926;2022-10-31T07:16:27;49.65;;;27.08;;
47335;SDS011;33068;51.990;5.926;2022-10-31T07:18:57;58.55;;;27.58;;
47335;SDS011;33068;51.990;5.926;2022-10-31T07:21:24;52.72;;;27.67;;
47335;SDS011;33068;51.990;5.926;2022-10-31T07:23:52;54.33;;;29.15;;
47335;SDS011;33068;51.990;5.926;2022-10-31T07:26:55;52.22;;;26.75;;
47335;SDS011;33068;51.990;5.926;2022-10-31T07:29:23;58.13;;;29.27;;
47335;SDS011;33068;51.990;5.926;2022-10-31T07:31:50;57.05;;;29.52;;
47335;SDS011;33068;51.990;5.926;2022-10-31T07:34:24;60.05;;;30.23;;
47335;SDS011;33068;51.990;5.926;2022-10-31T07:37:17;61.03;;;31.00;;
47335;SDS011;33068;51.990;5.926;2022-10-31T07:39:44;64.78;;;31.02;;
47335;SDS011;33068;51.990;5.926;2022-10-31T07:42:14;58.70;;;30.90;;
47335;SDS011;33068;51.990;5.926;2022-10-31T07:44:43;72.45;;;31.48;;
47335;SDS011;33068;51.990;5.926;2022-10-31T07:47:29;73.97;;;31.93;;
47335;SDS011;33068;51.990;5.926;2022-10-31T07:50:09;67.55;;;34.10;;
47335;SDS011;33068;51.990;5.926;2022-10-31T07:52:59;64.82;;;32.33;;
47335;SDS011;33068;51.990;5.926;2022-10-31T07:55:46;69.88;;;31.48;;
47335;SDS011;33068;51.990;5.926;2022-10-31T07:58:15;66.70;;;32.03;;
47335;SDS011;33068;51.990;5.926;2022-10-31T08:00:45;70.13;;;34.08;;
47335;SDS011;33068;51.990;5.926;2022-10-31T08:03:17;70.43;;;34.00;;
47335;SDS011;33068;51.990;5.926;2022-10-31T08:06:04;60.42;;;30.77;;
47335;SDS011;33068;51.990;5.926;2022-10-31T08:08:37;71.13;;;33.40;;
47335;SDS011;33068;51.990;5.926;2022-10-31T08:11:07;68.25;;;31.92;;
47335;SDS011;33068;51.990;5.926;2022-10-31T08:13:35;80.03;;;35.10;;
47335;SDS011;33068;51.990;5.926;2022-10-31T08:16:02;81.40;;;35.53;;
47335;SDS011;33068;51.990;5.926;2022-10-31T08:18:35;78.55;;;36.35;;
47335;SDS011;33068;51.990;5.926;2022-10-31T08:21:04;71.63;;;33.72;;
47335;SDS011;33068;51.990;5.926;2022-10-31T08:23:32;66.45;;;34.33;;
47335;SDS011;33068;51.990;5.926;2022-10-31T08:26:01;71.68;;;35.28;;
47335;SDS011;33068;51.990;5.926;2022-10-31T08:28:28;70.00;;;34.97;;
47335;SDS011;33068;51.990;5.926;2022-10-31T08:30:58;77.68;;;36.78;;
47335;SDS011;33068;51.990;5.926;2022-10-31T08:33:40;63.35;;;34.53;;
47335;SDS011;33068;51.990;5.926;2022-10-31T08:36:22;71.45;;;35.90;;
47335;SDS011;33068;51.990;5.926;2022-10-31T08:39:10;76.68;;;36.10;;
47335;SDS011;33068;51.990;5.926;2022-10-31T08:41:45;77.47;;;36.45;;
47335;SDS011;33068;51.990;5.926;2022-10-31T08:44:12;66.28;;;36.20;;
47335;SDS011;33068;51.990;5.926;2022-10-31T08:46:43;75.65;;;37.15;;
47335;SDS011;33068;51.990;5.926;2022-10-31T08:49:10;75.65;;;37.15;;
47335;SDS011;33068;51.990;5.926;2022-10-31T08:51:39;70.70;;;36.92;;
47335;SDS011;33068;51.990;5.926;2022-10-31T08:54:06;63.97;;;35.53;;
47335;SDS011;33068;51.990;5.926;2022-10-31T08:56:53;75.43;;;36.33;;
47335;SDS011;33068;51.990;5.926;2022-10-31T08:59:41;72.57;;;35.83;;
47335;SDS011;33068;51.990;5.926;2022-10-31T09:02:22;63.45;;;34.05;;
47335;SDS011;33068;51.990;5.926;2022-10-31T09:04:52;74.85;;;34.88;;
47335;SDS011;33068;51.990;5.926;2022-10-31T09:07:19;61.50;;;33.70;;
47335;SDS011;33068;51.990;5.926;2022-10-31T09:09:48;53.08;;;30.85;;
47335;SDS011;33068;51.990;5.926;2022-10-31T09:12:17;47.35;;;28.83;;
47335;SDS011;33068;51.990;5.926;2022-10-31T09:15:03;53.53;;;29.50;;
47335;SDS011;33068;51.990;5.926;2022-10-31T09:17:40;49.15;;;26.90;;
47335;SDS011;33068;51.990;5.926;2022-10-31T09:20:39;36.22;;;23.85;;
47335;SDS011;33068;51.990;5.926;2022-10-31T09:23:09;39.80;;;23.58;;
47335;SDS011;33068;51.990;5.926;2022-10-31T09:25:37;42.58;;;23.70;;
47335;SDS011;33068;51.990;5.926;2022-10-31T09:28:27;41.65;;;23.73;;
47335;SDS011;33068;51.990;5.926;2022-10-31T09:30:59;36.63;;;20.63;;
47335;SDS011;33068;51.990;5.926;2022-10-31T09:33:46;39.38;;;21.83;;
47335;SDS011;33068;51.990;5.926;2022-10-31T09:36:32;34.83;;;20.15;;
47335;SDS011;33068;51.990;5.926;2022-10-31T09:38:59;41.40;;;19.90;;
47335;SDS011;33068;51.990;5.926;2022-10-31T09:41:29;36.67;;;19.40;;
47335;SDS011;33068;51.990;5.926;2022-10-31T09:44:11;38.70;;;18.73;;
47335;SDS011;33068;51.990;5.926;2022-10-31T09:46:49;35.38;;;19.52;;
47335;SDS011;33068;51.990;5.926;2022-10-31T09:49:33;36.58;;;19.73;;
47335;SDS011;33068;51.990;5.926;2022-10-31T09:52:18;39.97;;;18.17;;
47335;SDS011;33068;51.990;5.926;2022-10-31T09:54:52;35.47;;;18.90;;
47335;SDS011;33068;51.990;5.926;2022-10-31T09:57:23;34.15;;;20.35;;
47335;SDS011;33068;51.990;5.926;2022-10-31T09:59:53;35.45;;;20.35;;
47335;SDS011;33068;51.990;5.926;2022-10-31T10:02:23;36.92;;;20.00;;
47335;SDS011;33068;51.990;5.926;2022-10-31T10:04:56;33.33;;;19.75;;
47335;SDS011;33068;51.990;5.926;2022-10-31T10:07:30;34.63;;;19.92;;
47335;SDS011;33068;51.990;5.926;2022-10-31T10:10:24;39.85;;;20.55;;
47335;SDS011;33068;51.990;5.926;2022-10-31T10:13:24;33.30;;;20.30;;
47335;SDS011;33068;51.990;5.926;2022-10-31T10:16:09;35.53;;;20.10;;
47335;SDS011;33068;51.990;5.926;2022-10-31T10:18:49;35.60;;;20.55;;
47335;SDS011;33068;51.990;5.926;2022-10-31T10:21:31;35.72;;;20.88;;
47335;SDS011;33068;51.990;5.926;2022-10-31T10:24:12;38.50;;;20.83;;
47335;SDS011;33068;51.990;5.926;2022-10-31T10:26:50;36.63;;;20.35;;
47335;SDS011;33068;51.990;5.926;2022-10-31T10:29:26;42.72;;;22.58;;
47335;SDS011;33068;51.990;5.926;2022-10-31T10:31:57;41.40;;;23.60;;
47335;SDS011;33068;51.990;5.926;2022-10-31T10:34:31;40.25;;;21.08;;
47335;SDS011;33068;51.990;5.926;2022-10-31T10:37:04;37.75;;;20.83;;
47335;SDS011;33068;51.990;5.926;2022-10-31T10:39:40;39.15;;;20.58;;
47335;SDS011;33068;51.990;5.926;2022-10-31T10:42:12;47.63;;;22.50;;
47335;SDS011;33068;51.990;5.926;2022-10-31T10:44:59;37.55;;;21.27;;
47335;SDS011;33068;51.990;5.926;2022-10-31T10:47:50;40.47;;;21.42;;
47335;SDS011;33068;51.990;5.926;2022-10-31T10:50:24;43.53;;;20.05;;
47335;SDS011;33068;51.990;5.926;2022-10-31T10:53:04;39.20;;;21.15;;
47335;SDS011;33068;51.990;5.926;2022-10-31T10:55:48;46.83;;;21.05;;
47335;SDS011;33068;51.990;5.926;2022-10-31T10:58:23;35.30;;;20.60;;
47335;SDS011;33068;51.990;5.926;2022-10-31T11:00:50;44.08;;;21.08;;
47335;SDS011;33068;51.990;5.926;2022-10-31T11:03:20;34.17;;;20.02;;
47335;SDS011;33068;51.990;5.926;2022-10-31T11:05:50;37.58;;;19.45;;
47335;SDS011;33068;51.990;5.926;2022-10-31T11:08:26;40.28;;;18.42;;
47335;SDS011;33068;51.990;5.926;2022-10-31T11:11:01;36.83;;;18.02;;
47335;SDS011;33068;51.990;5.926;2022-10-31T11:13:31;39.58;;;19.48;;
47335;SDS011;33068;51.990;5.926;2022-10-31T11:16:01;32.33;;;18.05;;
47335;SDS011;33068;51.990;5.926;2022-10-31T11:18:30;39.40;;;18.48;;
47335;SDS011;33068;51.990;5.926;2022-10-31T11:21:01;33.22;;;17.92;;
47335;SDS011;33068;51.990;5.926;2022-10-31T11:23:32;37.90;;;18.23;;
47335;SDS011;33068;51.990;5.926;2022-10-31T11:26:00;34.35;;;18.08;;
47335;SDS011;33068;51.990;5.926;2022-10-31T11:28:29;36.90;;;18.10;;
47335;SDS011;33068;51.990;5.926;2022-10-31T11:31:00;29.00;;;16.75;;
47335;SDS011;33068;51.990;5.926;2022-10-31T11:33:34;33.38;;;17.30;;
47335;SDS011;33068;51.990;5.926;2022-10-31T11:36:09;33.10;;;17.50;;
47335;SDS011;33068;51.990;5.926;2022-10-31T11:38:43;36.20;;;17.52;;
47335;SDS011;33068;51.990;5.926;2022-10-31T11:41:11;34.60;;;19.33;;
47335;SDS011;33068;51.990;5.926;2022-10-31T11:43:45;36.83;;;18.00;;
47335;SDS011;33068;51.990;5.926;2022-10-31T11:46:17;33.60;;;17.52;;
47335;SDS011;33068;51.990;5.926;2022-10-31T11:48:48;40.72;;;19.45;;
47335;SDS011;33068;51.990;5.926;2022-10-31T11:51:20;31.90;;;17.33;;
47335;SDS011;33068;51.990;5.926;2022-10-31T11:53:53;32.45;;;17.67;;
47335;SDS011;33068;51.990;5.926;2022-10-31T11:56:22;36.03;;;18.70;;
47335;SDS011;33068;51.990;5.926;2022-10-31T11:58:56;34.03;;;18.58;;
47335;SDS011;33068;51.990;5.926;2022-10-31T12:01:26;33.13;;;17.88;;
47335;SDS011;33068;51.990;5.926;2022-10-31T12:03:57;36.42;;;19.05;;
47335;SDS011;33068;51.990;5.926;2022-10-31T12:06:32;37.88;;;18.77;;
47335;SDS011;33068;51.990;5.926;2022-10-31T12:09:04;40.00;;;18.85;;
47335;SDS011;33068;51.990;5.926;2022-10-31T12:11:46;37.83;;;19.40;;
47335;SDS011;33068;51.990;5.926;2022-10-31T12:14:25;43.92;;;20.52;;
47335;SDS011;33068;51.990;5.926;2022-10-31T12:17:01;40.15;;;20.77;;
47335;SDS011;33068;51.990;5.926;2022-10-31T12:19:36;41.15;;;20.20;;
47335;SDS011;33068;51.990;5.926;2022-10-31T12:22:12;41.95;;;19.48;;
47335;SDS011;33068;51.990;5.926;2022-10-31T12:24:58;37.92;;;19.20;;
47335;SDS011;33068;51.990;5.926;2022-10-31T12:27:37;36.80;;;18.67;;
47335;SDS011;33068;51.990;5.926;2022-10-31T12:30:18;36.38;;;19.55;;
47335;SDS011;33068;51.990;5.926;2022-10-31T12:32:52;42.83;;;19.13;;
47335;SDS011;33068;51.990;5.926;2022-10-31T12:35:44;42.03;;;19.33;;
47335;SDS011;33068;51.990;5.926;2022-10-31T12:38:25;38.97;;;20.02;;
47335;SDS011;33068;51.990;5.926;2022-10-31T12:41:17;45.13;;;20.80;;
47335;SDS011;33068;51.990;5.926;2022-10-31T12:44:02;46.97;;;21.73;;
47335;SDS011;33068;51.990;5.926;2022-10-31T12:46:38;37.35;;;20.42;;
47335;SDS011;33068;51.990;5.926;2022-10-31T12:49:27;42.70;;;20.30;;
47335;SDS011;33068;51.990;5.926;2022-10-31T12:52:15;36.42;;;19.88;;
47335;SDS011;33068;51.990;5.926;2022-10-31T12:54:56;38.20;;;19.90;;
47335;SDS011;33068;51.990;5.926;2022-10-31T12:57:35;46.67;;;21.63;;
47335;SDS011;33068;51.990;5.926;2022-10-31T13:00:10;48.10;;;22.17;;
47335;SDS011;33068;51.990;5.926;2022-10-31T13:02:41;48.42;;;21.40;;
47335;SDS011;33068;51.990;5.926;2022-10-31T13:05:17;44.10;;;21.95;;
47335;SDS011;33068;51.990;5.926;2022-10-31T13:07:50;42.78;;;21.40;;
47335;SDS011;33068;51.990;5.926;2022-10-31T13:10:22;47.00;;;21.80;;
47335;SDS011;33068;51.990;5.926;2022-10-31T13:12:59;46.83;;;21.17;;
47335;SDS011;33068;51.990;5.926;2022-10-31T13:15:34;37.55;;;18.48;;
47335;SDS011;33068;51.990;5.926;2022-10-31T13:18:12;43.30;;;19.80;;
47335;SDS011;33068;51.990;5.926;2022-10-31T13:20:48;45.80;;;19.90;;
47335;SDS011;33068;51.990;5.926;2022-10-31T13:23:19;39.30;;;19.10;;
47335;SDS011;33068;51.990;5.926;2022-10-31T13:25:52;39.35;;;18.58;;
47335;SDS011;33068;51.990;5.926;2022-10-31T13:28:26;37.65;;;19.75;;
47335;SDS011;33068;51.990;5.926;2022-10-31T13:31:00;40.20;;;20.02;;
47335;SDS011;33068;51.990;5.926;2022-10-31T13:33:28;37.65;;;18.10;;
47335;SDS011;33068;51.990;5.926;2022-10-31T13:38:48;42.85;;;18.88;;
47335;SDS011;33068;51.990;5.926;2022-10-31T13:41:22;36.38;;;18.85;;
47335;SDS011;33068;51.990;5.926;2022-10-31T13:44:00;36.25;;;17.95;;
47335;SDS011;33068;51.990;5.926;2022-10-31T13:46:35;39.03;;;18.98;;
47335;SDS011;33068;51.990;5.926;2022-10-31T13:49:04;43.88;;;19.13;;
47335;SDS011;33068;51.990;5.926;2022-10-31T13:51:50;37.88;;;17.95;;
47335;SDS011;33068;51.990;5.926;2022-10-31T13:54:22;37.40;;;18.02;;
47335;SDS011;33068;51.990;5.926;2022-10-31T13:56:50;34.35;;;18.77;;
47335;SDS011;33068;51.990;5.926;2022-10-31T13:59:22;42.65;;;18.40;;
47335;SDS011;33068;51.990;5.926;2022-10-31T14:01:52;36.50;;;18.73;;
47335;SDS011;33068;51.990;5.926;2022-10-31T14:04:22;36.30;;;19.05;;
47335;SDS011;33068;51.990;5.926;2022-10-31T14:06:59;35.83;;;18.75;;
47335;SDS011;33068;51.990;5.926;2022-10-31T14:09:33;36.08;;;17.63;;
47335;SDS011;33068;51.990;5.926;2022-10-31T14:12:03;36.13;;;18.98;;
47335;SDS011;33068;51.990;5.926;2022-10-31T14:14:39;33.05;;;17.60;;
47335;SDS011;33068;51.990;5.926;2022-10-31T14:17:18;39.22;;;17.15;;
47335;SDS011;33068;51.990;5.926;2022-10-31T14:20:03;42.05;;;17.60;;
47335;SDS011;33068;51.990;5.926;2022-10-31T14:26:18;38.80;;;18.02;;
47335;SDS011;33068;51.990;5.926;2022-10-31T14:28:56;37.70;;;17.58;;
47335;SDS011;33068;51.990;5.926;2022-10-31T14:31:29;35.20;;;16.58;;
47335;SDS011;33068;51.990;5.926;2022-10-31T14:34:15;41.75;;;17.35;;
47335;SDS011;33068;51.990;5.926;2022-10-31T14:36:51;39.50;;;17.60;;
47335;SDS011;33068;51.990;5.926;2022-10-31T14:39:41;39.50;;;18.75;;
47335;SDS011;33068;51.990;5.926;2022-10-31T14:42:21;35.53;;;17.25;;
47335;SDS011;33068;51.990;5.926;2022-10-31T14:45:17;35.20;;;16.23;;
47335;SDS011;33068;51.990;5.926;2022-10-31T14:48:00;39.42;;;16.80;;
47335;SDS011;33068;51.990;5.926;2022-10-31T14:50:41;41.58;;;18.17;;
47335;SDS011;33068;51.990;5.926;2022-10-31T14:53:14;36.85;;;16.52;;
47335;SDS011;33068;51.990;5.926;2022-10-31T14:55:46;31.58;;;15.70;;
47335;SDS011;33068;51.990;5.926;2022-10-31T14:58:16;43.05;;;16.83;;
47335;SDS011;33068;51.990;5.926;2022-10-31T15:00:50;33.22;;;16.13;;
47335;SDS011;33068;51.990;5.926;2022-10-31T15:03:24;35.33;;;17.48;;
47335;SDS011;33068;51.990;5.926;2022-10-31T15:05:59;46.72;;;17.85;;
47335;SDS011;33068;51.990;5.926;2022-10-31T15:08:31;36.28;;;15.63;;
47335;SDS011;33068;51.990;5.926;2022-10-31T15:11:02;38.95;;;17.92;;
47335;SDS011;33068;51.990;5.926;2022-10-31T15:13:40;37.90;;;16.48;;
47335;SDS011;33068;51.990;5.926;2022-10-31T15:16:09;37.30;;;17.52;;